Darstellungsparameter: Aktuell verwendete Einstellungen:
Skalierung der Graphiken ... ?
xyx+y,   Skalierungsfaktor:      Skalierung: Modus: x, Faktor: 1
Darstellungszeitraum ... ?
Vom - - bis: - -   Zeitraum: 04.01.2021 - 17.01.2021
Min/Max/Avg-Anzeige ... ?
Zeige MMA aktuell
Zeige MMA Monat
Zeige MMA alles
Zeige --A aktuell
Zeige --A Monat
Zeige --A alles
Keine MMA-Anzeige
MMA:
Average (ber die Originaldaten)
MMA-Basis: 23.02.2003 - 03.08.2020
Quicknavigation für Darstellung... ?
Tage:      1T, 2T, 3T, 5T -1T -2T -3T -5T +1T +2T +3T +5T
Wochen: 1W, 2W, 3W -1W -2W -3W +1W +2W +3W
Monate: 1M, 3M, 6M -1M -3M -6M +1M +3M +6M
Jahre:    1J, 3J, 5J, 10J -1J -3J -5J -10J +1J +3J +5J +10J
Nutze für die Darstellung ... ?
Originaldaten oder ...
Mittelwerte Minima Maxima auf...
Stundenbasis Tagesbasis Wochenbasis
Monatsbasis Jahresbasis      Datenbasis: Mittelwerte auf Stundenbasis
Darstellen als:
Statistik (Auto) Statistik J:M      Darstellung:
Zur Graphik,    zurück zur Übersicht aller Sensoren.
 
Tabellarische Datenbersicht: ?
 
Sensor: Nr:Datum:Temp:Abs-Feuchte:Windchill:Wind:
Aussen-T/F 1 04-01-2021 00:00:00 2.225 C 5.36 g/m*3 2.23 C 0 km/h
2 04-01-2021 01:00:00 2.06667 C 5.3 g/m*3 2.07 C 0 km/h
3 04-01-2021 02:00:00 1.85833 C 5.23 g/m*3 1.86 C 0.13333 km/h
4 04-01-2021 03:00:00 1.78333 C 5.2 g/m*3 1.78 C 0.13333 km/h
5 04-01-2021 04:00:00 1.63333 C 5.19 g/m*3 1.63 C 0 km/h
6 04-01-2021 05:00:00 1.39167 C 5.1 g/m*3 1.39 C 0 km/h
7 04-01-2021 06:00:00 1.06667 C 4.99 g/m*3 1.07 C 0 km/h
8 04-01-2021 07:00:00 0.90833 C 4.95 g/m*3 0.91 C 0 km/h
9 04-01-2021 08:00:00 0.96667 C 4.97 g/m*3 0.97 C 0 km/h
10 04-01-2021 09:00:00 1.14167 C 5.03 g/m*3 1.14 C 0 km/h
11 04-01-2021 10:00:00 1.31667 C 5.09 g/m*3 1.32 C 0.13333 km/h
12 04-01-2021 11:00:00 1.60833 C 5.23 g/m*3 1.61 C 0 km/h
13 04-01-2021 12:00:00 1.81667 C 5.32 g/m*3 1.82 C 0.13333 km/h
14 04-01-2021 13:00:00 1.975 C 5.38 g/m*3 1.98 C 0.53333 km/h
15 04-01-2021 14:00:00 2.025 C 5.4 g/m*3 2.03 C 0.26667 km/h
16 04-01-2021 15:00:00 2 C 5.39 g/m*3 2 C 0.26667 km/h
17 04-01-2021 16:00:00 1.93333 C 5.37 g/m*3 1.93 C 0 km/h
18 04-01-2021 17:00:00 1.80833 C 5.32 g/m*3 1.81 C 0 km/h
19 04-01-2021 18:00:00 1.8 C 5.32 g/m*3 1.8 C 0.66667 km/h
20 04-01-2021 19:00:00 1.8 C 5.32 g/m*3 1.8 C 1.06667 km/h
21 04-01-2021 20:00:00 1.75 C 5.3 g/m*3 1.75 C 0 km/h
22 04-01-2021 21:00:00 1.70833 C 5.28 g/m*3 1.71 C 0 km/h
23 04-01-2021 22:00:00 1.775 C 5.31 g/m*3 1.78 C 0 km/h
24 04-01-2021 23:00:00 1.8 C 5.32 g/m*3 1.8 C 0.53333 km/h
25 05-01-2021 00:00:00 1.84167 C 5.33 g/m*3 1.84 C 0.4 km/h
Sensor: Nr:Datum:Temp:Abs-Feuchte:Windchill:Wind:
Aussen-T/F 26 05-01-2021 01:00:00 1.9 C 5.35 g/m*3 1.9 C 0.4 km/h
27 05-01-2021 02:00:00 1.9 C 5.35 g/m*3 1.9 C 0.53333 km/h
28 05-01-2021 03:00:00 1.99167 C 5.38 g/m*3 1.99 C 0.13333 km/h
29 05-01-2021 04:00:00 2.1 C 5.37 g/m*3 2.1 C 0 km/h
30 05-01-2021 05:00:00 2.08333 C 5.36 g/m*3 2.08 C 0 km/h
31 05-01-2021 06:00:00 2.1 C 5.37 g/m*3 2.1 C 0 km/h
32 05-01-2021 07:00:00 2.08333 C 5.36 g/m*3 2.08 C 0.26667 km/h
33 05-01-2021 08:00:00 2.05 C 5.35 g/m*3 2.05 C 0.13333 km/h
34 05-01-2021 09:00:00 2.15 C 5.39 g/m*3 2.15 C 0.13333 km/h
35 05-01-2021 10:00:00 2.34167 C 5.46 g/m*3 2.34 C 0.93333 km/h
36 05-01-2021 11:00:00 2.65833 C 5.49 g/m*3 2.66 C 1.2 km/h
37 05-01-2021 12:00:00 2.88333 C 5.48 g/m*3 2.88 C 4.54167 km/h
38 05-01-2021 13:00:00 3.03333 C 5.54 g/m*3 3.03 C 0.26667 km/h
39 05-01-2021 14:00:00 3.25 C 5.62 g/m*3 3.25 C 0 km/h
40 05-01-2021 15:00:00 3.3 C 5.64 g/m*3 3.3 C 0 km/h
41 05-01-2021 16:00:00 3.20833 C 5.61 g/m*3 3.21 C 0 km/h
42 05-01-2021 17:00:00 3.05 C 5.59 g/m*3 3.05 C 0 km/h
43 05-01-2021 18:00:00 2.90833 C 5.56 g/m*3 2.91 C 0 km/h
44 05-01-2021 19:00:00 2.9 C 5.61 g/m*3 2.9 C 0 km/h
45 05-01-2021 20:00:00 2.9 C 5.61 g/m*3 2.9 C 0 km/h
46 05-01-2021 21:00:00 2.9 C 5.61 g/m*3 2.9 C 0 km/h
47 05-01-2021 22:00:00 2.68333 C 5.52 g/m*3 2.68 C 0 km/h
48 05-01-2021 23:00:00 2.36667 C 5.43 g/m*3 2.37 C 0.26667 km/h
49 06-01-2021 00:00:00 2.66667 C 5.54 g/m*3 2.67 C 0 km/h
50 06-01-2021 01:00:00 2.69167 C 5.55 g/m*3 2.69 C 4.425 km/h
Sensor: Nr:Datum:Temp:Abs-Feuchte:Windchill:Wind:
Aussen-T/F 51 06-01-2021 02:00:00 2.35 C 5.41 g/m*3 2.35 C 2.8 km/h
52 06-01-2021 03:00:00 2.15 C 5.37 g/m*3 2.15 C 0.13333 km/h
53 06-01-2021 04:00:00 1.68333 C 5.2 g/m*3 1.68 C 0 km/h
54 06-01-2021 05:00:00 1.95833 C 5.32 g/m*3 1.96 C 0.26667 km/h
55 06-01-2021 06:00:00 2.14167 C 5.39 g/m*3 2.14 C 0 km/h
56 06-01-2021 07:00:00 2.2 C 5.44 g/m*3 2.2 C 1.2 km/h
57 06-01-2021 08:00:00 2.15 C 5.41 g/m*3 2.15 C 0 km/h
58 06-01-2021 09:00:00 2.24167 C 5.47 g/m*3 2.24 C 0 km/h
59 06-01-2021 10:00:00 2.65833 C 5.64 g/m*3 2.66 C 0.13333 km/h
60 06-01-2021 11:00:00 3.175 C 5.83 g/m*3 3.18 C 0.4 km/h
61 06-01-2021 12:00:00 3.525 C 5.9 g/m*3 3.53 C 1.86667 km/h
62 06-01-2021 13:00:00 3.76667 C 5.85 g/m*3 2.25 C 6.15 km/h
63 06-01-2021 14:00:00 3.8 C 5.72 g/m*3 2.38 C 5.9 km/h
64 06-01-2021 15:00:00 3.875 C 5.74 g/m*3 3.88 C 2.93333 km/h
65 06-01-2021 16:00:00 3.65833 C 5.67 g/m*3 3.66 C 4.66667 km/h
66 06-01-2021 17:00:00 3.325 C 5.59 g/m*3 3.33 C 4.00833 km/h
67 06-01-2021 18:00:00 2.99167 C 5.47 g/m*3 2.99 C 4.26667 km/h
68 06-01-2021 19:00:00 2.8 C 5.45 g/m*3 2.8 C 4.4 km/h
69 06-01-2021 20:00:00 2.75 C 5.38 g/m*3 1.44 C 5.225 km/h
70 06-01-2021 21:00:00 2.5 C 5.28 g/m*3 2.5 C 4.55 km/h
71 06-01-2021 22:00:00 2.35 C 5.16 g/m*3 0.98 C 5.23333 km/h
72 06-01-2021 23:00:00 2.19167 C 5.07 g/m*3 2.19 C 3.475 km/h
73 07-01-2021 00:00:00 2.09167 C 4.99 g/m*3 -0.05 C 7.24167 km/h
74 07-01-2021 01:00:00 1.83333 C 4.98 g/m*3 1.83 C 1.33333 km/h
75 07-01-2021 02:00:00 1.45833 C 4.94 g/m*3 1.46 C 0.66667 km/h
Sensor: Nr:Datum:Temp:Abs-Feuchte:Windchill:Wind:
Aussen-T/F 76 07-01-2021 03:00:00 1.25833 C 4.91 g/m*3 1.26 C 0 km/h
77 07-01-2021 04:00:00 1.21667 C 4.93 g/m*3 1.22 C 0 km/h
78 07-01-2021 05:00:00 1.34167 C 4.98 g/m*3 1.34 C 1.06667 km/h
79 07-01-2021 06:00:00 1.5 C 4.97 g/m*3 1.5 C 3.06667 km/h
80 07-01-2021 07:00:00 1.73333 C 4.98 g/m*3 0.17 C 5.475 km/h
81 07-01-2021 08:00:00 1.73333 C 4.94 g/m*3 -0.14 C 6.29167 km/h
82 07-01-2021 09:00:00 1.9 C 4.95 g/m*3 0.3 C 5.625 km/h
83 07-01-2021 10:00:00 2.18333 C 5.04 g/m*3 2.18 C 4.00833 km/h
84 07-01-2021 11:00:00 2.7 C 5.13 g/m*3 0.79 C 6.83333 km/h
85 07-01-2021 12:00:00 2.71667 C 5.17 g/m*3 0.07 C 9.41667 km/h
86 07-01-2021 13:00:00 2.68333 C 5.38 g/m*3 0.51 C 7.65833 km/h
87 07-01-2021 14:00:00 2.84167 C 5.42 g/m*3 0.83 C 7.24167 km/h
88 07-01-2021 15:00:00 2.45 C 5.33 g/m*3 0.45 C 6.975 km/h
89 07-01-2021 16:00:00 2.4 C 5.31 g/m*3 0.1 C 7.91667 km/h
90 07-01-2021 17:00:00 2.36667 C 5.33 g/m*3 0.49 C 6.575 km/h
91 07-01-2021 18:00:00 2.375 C 5.35 g/m*3 0.03 C 8.05833 km/h
92 07-01-2021 19:00:00 2.2 C 5.33 g/m*3 0.08 C 7.23333 km/h
93 07-01-2021 20:00:00 2.1 C 5.31 g/m*3 0.19 C 6.56667 km/h
94 07-01-2021 21:00:00 1.89167 C 5.19 g/m*3 -0.58 C 8.2 km/h
95 07-01-2021 22:00:00 1.9 C 5.16 g/m*3 -0.72 C 8.73333 km/h
96 07-01-2021 23:00:00 1.93333 C 5.14 g/m*3 -0.75 C 9.00833 km/h
97 08-01-2021 00:00:00 1.73333 C 5.12 g/m*3 -1.26 C 10.08333 km/h
98 08-01-2021 01:00:00 1.63333 C 5.13 g/m*3 -0.72 C 7.65833 km/h
99 08-01-2021 02:00:00 1.76667 C 5.15 g/m*3 -0.39 C 7.125 km/h
100 08-01-2021 03:00:00 1.8 C 5.15 g/m*3 -1.02 C 9.425 km/h
Sensor: Nr:Datum:Temp:Abs-Feuchte:Windchill:Wind:
Aussen-T/F 101 08-01-2021 04:00:00 1.84167 C 5.17 g/m*3 -0.93 C 9.28333 km/h
102 08-01-2021 05:00:00 1.84167 C 5.21 g/m*3 -0.79 C 8.75833 km/h
103 08-01-2021 06:00:00 1.79167 C 5.2 g/m*3 -0.22 C 6.69167 km/h
104 08-01-2021 07:00:00 1.71667 C 5.19 g/m*3 1.72 C 4.54167 km/h
105 08-01-2021 08:00:00 1.6 C 5.19 g/m*3 1.6 C 4.94167 km/h
106 08-01-2021 09:00:00 1.63333 C 5.2 g/m*3 1.63 C 4.26667 km/h
107 08-01-2021 10:00:00 1.89167 C 5.3 g/m*3 1.89 C 2.66667 km/h
108 08-01-2021 11:00:00 2.2 C 5.4 g/m*3 2.2 C 2.66667 km/h
109 08-01-2021 12:00:00 2.525 C 5.47 g/m*3 2.53 C 2.66667 km/h
110 08-01-2021 13:00:00 2.50833 C 5.46 g/m*3 2.51 C 0.53333 km/h
111 08-01-2021 14:00:00 2.54167 C 5.47 g/m*3 2.54 C 2.53333 km/h
112 08-01-2021 15:00:00 2.475 C 5.41 g/m*3 2.48 C 2.26667 km/h
113 08-01-2021 16:00:00 2.33333 C 5.36 g/m*3 2.33 C 1.86667 km/h
114 08-01-2021 17:00:00 2.14167 C 5.33 g/m*3 2.14 C 0.8 km/h
115 08-01-2021 18:00:00 2.1 C 5.34 g/m*3 2.1 C 1.06667 km/h
116 08-01-2021 19:00:00 2.15833 C 5.39 g/m*3 2.16 C 0 km/h
117 08-01-2021 20:00:00 2.15833 C 5.39 g/m*3 2.16 C 0 km/h
118 08-01-2021 21:00:00 2.08333 C 5.36 g/m*3 2.08 C 1.73333 km/h
119 08-01-2021 22:00:00 1.64167 C 5.18 g/m*3 1.64 C 1.86667 km/h
120 08-01-2021 23:00:00 0.81667 C 4.89 g/m*3 0.82 C 0.66667 km/h
121 09-01-2021 00:00:00 0.69167 C 4.88 g/m*3 0.69 C 1.86667 km/h
122 09-01-2021 01:00:00 0.89167 C 4.95 g/m*3 0.89 C 0.8 km/h
123 09-01-2021 02:00:00 1 C 4.98 g/m*3 1 C 0.13333 km/h
124 09-01-2021 03:00:00 1.10833 C 5.02 g/m*3 1.11 C 0.66667 km/h
125 09-01-2021 04:00:00 0.85 C 4.95 g/m*3 0.85 C 0.93333 km/h
Sensor: Nr:Datum:Temp:Abs-Feuchte:Windchill:Wind:
Aussen-T/F 126 09-01-2021 05:00:00 0.9 C 5 g/m*3 0.9 C 0.26667 km/h
127 09-01-2021 06:00:00 0.94167 C 5.01 g/m*3 0.94 C 0.66667 km/h
128 09-01-2021 07:00:00 1.025 C 5.04 g/m*3 1.02 C 0.53333 km/h
129 09-01-2021 08:00:00 1.06667 C 5.05 g/m*3 1.07 C 0.8 km/h
130 09-01-2021 09:00:00 1.01667 C 4.99 g/m*3 1.02 C 0.26667 km/h
131 09-01-2021 10:00:00 0.91667 C 4.98 g/m*3 0.92 C 0.4 km/h
132 09-01-2021 11:00:00 1.10833 C 5.03 g/m*3 1.11 C 1.60833 km/h
133 09-01-2021 12:00:00 1.34167 C 5.07 g/m*3 1.34 C 2.41667 km/h
134 09-01-2021 13:00:00 2.15833 C 5.1 g/m*3 2.16 C 3.35 km/h
135 09-01-2021 14:00:00 2.875 C 5.14 g/m*3 2.88 C 3.2 km/h
136 09-01-2021 15:00:00 2.925 C 5.03 g/m*3 2.93 C 4.13333 km/h
137 09-01-2021 16:00:00 2.5 C 5.05 g/m*3 2.5 C 1.33333 km/h
138 09-01-2021 17:00:00 1.64167 C 4.93 g/m*3 1.64 C 0.4 km/h
139 09-01-2021 18:00:00 1.3 C 4.91 g/m*3 1.3 C 0 km/h
140 09-01-2021 19:00:00 1.26667 C 4.96 g/m*3 1.27 C 0 km/h
141 09-01-2021 20:00:00 1.16667 C 4.93 g/m*3 1.17 C 0 km/h
142 09-01-2021 21:00:00 1.09167 C 4.94 g/m*3 1.09 C 0 km/h
143 09-01-2021 22:00:00 1.19167 C 5 g/m*3 1.19 C 0 km/h
144 09-01-2021 23:00:00 1.25 C 5.02 g/m*3 1.25 C 0 km/h
145 10-01-2021 00:00:00 0.96667 C 4.92 g/m*3 0.97 C 0 km/h
146 10-01-2021 01:00:00 0.83333 C 4.9 g/m*3 0.83 C 0 km/h
147 10-01-2021 02:00:00 0.9 C 4.95 g/m*3 0.9 C 0 km/h
148 10-01-2021 03:00:00 0.95833 C 4.97 g/m*3 0.96 C 0 km/h
149 10-01-2021 04:00:00 0.88333 C 4.94 g/m*3 0.88 C 0 km/h
150 10-01-2021 05:00:00 0.7 C 4.88 g/m*3 0.7 C 0 km/h
Sensor: Nr:Datum:Temp:Abs-Feuchte:Windchill:Wind:
Aussen-T/F 151 10-01-2021 06:00:00 0.71667 C 4.89 g/m*3 0.72 C 0 km/h
152 10-01-2021 07:00:00 0.84167 C 4.93 g/m*3 0.84 C 0 km/h
153 10-01-2021 08:00:00 0.70833 C 4.88 g/m*3 0.71 C 0 km/h
154 10-01-2021 09:00:00 0.775 C 4.91 g/m*3 0.78 C 0 km/h
155 10-01-2021 10:00:00 1.24167 C 5.08 g/m*3 1.24 C 0 km/h
156 10-01-2021 11:00:00 1.775 C 5.22 g/m*3 1.78 C 0.8 km/h
157 10-01-2021 12:00:00 2.325 C 5.21 g/m*3 2.33 C 1.86667 km/h
158 10-01-2021 13:00:00 2.88333 C 5.12 g/m*3 2.88 C 1.33333 km/h
159 10-01-2021 14:00:00 3.21667 C 4.99 g/m*3 3.22 C 1.46667 km/h
160 10-01-2021 15:00:00 3.325 C 4.9 g/m*3 3.33 C 0.4 km/h
161 10-01-2021 16:00:00 2.80833 C 5.01 g/m*3 2.81 C 0.93333 km/h
162 10-01-2021 17:00:00 0.91667 C 4.55 g/m*3 0.92 C 4.26667 km/h
163 10-01-2021 18:00:00 -0.45833 C 4.28 g/m*3 -0.46 C 1.2 km/h
164 10-01-2021 19:00:00 -1.075 C 4.17 g/m*3 -1.08 C 0 km/h
165 10-01-2021 20:00:00 -1.65833 C 4.04 g/m*3 -1.66 C 0 km/h
166 10-01-2021 21:00:00 -2.08333 C 3.94 g/m*3 -2.08 C 0 km/h
167 10-01-2021 22:00:00 -2.35833 C 3.9 g/m*3 -2.36 C 0 km/h
168 10-01-2021 23:00:00 -2.70833 C 3.81 g/m*3 -2.71 C 0.13333 km/h
169 11-01-2021 00:00:00 -2.975 C 3.74 g/m*3 -2.98 C 0.13333 km/h
170 11-01-2021 01:00:00 -3.30833 C 3.65 g/m*3 -3.31 C 0.13333 km/h
171 11-01-2021 02:00:00 -2.94167 C 3.77 g/m*3 -2.94 C 0.13333 km/h
172 11-01-2021 03:00:00 -3.30833 C 3.65 g/m*3 -3.31 C 0 km/h
173 11-01-2021 04:00:00 -3.59167 C 3.58 g/m*3 -3.59 C 0 km/h
174 11-01-2021 05:00:00 -3.86667 C 3.51 g/m*3 -3.87 C 0 km/h
175 11-01-2021 06:00:00 -4.125 C 3.46 g/m*3 -4.13 C 0 km/h
Sensor: Nr:Datum:Temp:Abs-Feuchte:Windchill:Wind:
Aussen-T/F 176 11-01-2021 07:00:00 -3.925 C 3.53 g/m*3 -3.93 C 0.66667 km/h
177 11-01-2021 08:00:00 -3.36667 C 3.67 g/m*3 -3.37 C 1.2 km/h
178 11-01-2021 09:00:00 -2.6 C 3.88 g/m*3 -2.6 C 0.93333 km/h
179 11-01-2021 10:00:00 -1.30833 C 4.18 g/m*3 -3.24 C 5.35 km/h
180 11-01-2021 11:00:00 0.08333 C 4.32 g/m*3 -2.66 C 8.05 km/h
181 11-01-2021 12:00:00 1.01667 C 4.35 g/m*3 -2.32 C 10.88333 km/h
182 11-01-2021 13:00:00 1.825 C 4.43 g/m*3 -1.22 C 10.35 km/h
183 11-01-2021 14:00:00 2.26667 C 4.55 g/m*3 0.07 C 7.525 km/h
184 11-01-2021 15:00:00 2.375 C 4.68 g/m*3 2.38 C 3.74167 km/h
185 11-01-2021 16:00:00 2.33333 C 4.86 g/m*3 2.33 C 0.53333 km/h
186 11-01-2021 17:00:00 1.79167 C 4.85 g/m*3 1.79 C 2 km/h
187 11-01-2021 18:00:00 1.66667 C 4.82 g/m*3 1.67 C 1.86667 km/h
188 11-01-2021 19:00:00 1.76667 C 4.82 g/m*3 1.77 C 3.34167 km/h
189 11-01-2021 20:00:00 2 C 4.88 g/m*3 2 C 4.14167 km/h
190 11-01-2021 21:00:00 2.325 C 4.93 g/m*3 0.9 C 5.35833 km/h
191 11-01-2021 22:00:00 2.49167 C 5.01 g/m*3 0.73 C 6.3 km/h
192 11-01-2021 23:00:00 2.8 C 5.11 g/m*3 0.07 C 9.81667 km/h
193 12-01-2021 00:00:00 3 C 5.24 g/m*3 -0.24 C 12.35833 km/h
194 12-01-2021 01:00:00 3.26667 C 5.38 g/m*3 -0.65 C 16.63333 km/h
195 12-01-2021 02:00:00 3.34167 C 5.42 g/m*3 -0.23 C 14.63333 km/h
196 12-01-2021 03:00:00 3.51667 C 5.54 g/m*3 -0.02 C 14.63333 km/h
197 12-01-2021 04:00:00 3.725 C 5.59 g/m*3 -0.47 C 19.45 km/h
198 12-01-2021 05:00:00 3.875 C 5.63 g/m*3 -0.78 C 23.6 km/h
199 12-01-2021 06:00:00 3.85833 C 5.67 g/m*3 -0.74 C 23.04167 km/h
200 12-01-2021 07:00:00 3.79167 C 5.66 g/m*3 -0.78 C 22.64167 km/h
Sensor: Nr:Datum:Temp:Abs-Feuchte:Windchill:Wind:
Aussen-T/F 201 12-01-2021 08:00:00 3.95833 C 5.66 g/m*3 -0.91 C 25.86667 km/h
202 12-01-2021 09:00:00 4.14167 C 5.69 g/m*3 -0.76 C 26.69167 km/h
203 12-01-2021 10:00:00 4.41667 C 5.8 g/m*3 -0.2 C 24.66667 km/h
204 12-01-2021 11:00:00 4.68333 C 5.96 g/m*3 0.69 C 19.83333 km/h
205 12-01-2021 12:00:00 5.05 C 6.15 g/m*3 1.35 C 18.23333 km/h
206 12-01-2021 13:00:00 5.225 C 6.3 g/m*3 1.82 C 16.36667 km/h
207 12-01-2021 14:00:00 5.18333 C 6.47 g/m*3 2.75 C 10.61667 km/h
208 12-01-2021 15:00:00 5.40833 C 6.63 g/m*3 2.86 C 11.41667 km/h
209 12-01-2021 16:00:00 5.45 C 6.58 g/m*3 3.42 C 9.00833 km/h
210 12-01-2021 17:00:00 4.56667 C 6.12 g/m*3 2.88 C 7.10833 km/h
211 12-01-2021 18:00:00 3.25833 C 5.65 g/m*3 3.26 C 4.95 km/h
212 12-01-2021 19:00:00 2.45833 C 5.41 g/m*3 2.46 C 4.80833 km/h
213 12-01-2021 20:00:00 2.75 C 5.47 g/m*3 1.5 C 5.075 km/h
214 12-01-2021 21:00:00 3.05 C 5.45 g/m*3 1.61 C 5.64167 km/h
215 12-01-2021 22:00:00 2.96667 C 5.38 g/m*3 2.97 C 3.46667 km/h
216 12-01-2021 23:00:00 2.14167 C 5.21 g/m*3 2.14 C 2.8 km/h
217 13-01-2021 00:00:00 1.93333 C 5.2 g/m*3 1.93 C 2.8 km/h
218 13-01-2021 01:00:00 1.59167 C 5.1 g/m*3 1.59 C 4.275 km/h
219 13-01-2021 02:00:00 1.7 C 5.1 g/m*3 -0.8 C 8.2 km/h
220 13-01-2021 03:00:00 1.73333 C 5 g/m*3 -0.92 C 8.75833 km/h
221 13-01-2021 04:00:00 1.63333 C 4.91 g/m*3 -0.96 C 8.475 km/h
222 13-01-2021 05:00:00 1.66667 C 4.89 g/m*3 -1.07 C 9.01667 km/h
223 13-01-2021 06:00:00 1.775 C 4.92 g/m*3 -1.04 C 9.39167 km/h
224 13-01-2021 07:00:00 1.91667 C 4.92 g/m*3 -0.92 C 9.56667 km/h
225 13-01-2021 08:00:00 1.75833 C 4.93 g/m*3 -0.61 C 7.78333 km/h
Sensor: Nr:Datum:Temp:Abs-Feuchte:Windchill:Wind:
Aussen-T/F 226 13-01-2021 09:00:00 1.31667 C 4.9 g/m*3 -1.66 C 9.69167 km/h
227 13-01-2021 10:00:00 1.94167 C 5.14 g/m*3 -0.63 C 8.61667 km/h
228 13-01-2021 11:00:00 2.95 C 5.35 g/m*3 0.04 C 10.75833 km/h
229 13-01-2021 12:00:00 3.74167 C 5.45 g/m*3 0.59 C 12.76667 km/h
230 13-01-2021 13:00:00 4.15833 C 5.43 g/m*3 1.3 C 11.68333 km/h
231 13-01-2021 14:00:00 4.63333 C 5.3 g/m*3 1.98 C 11.15833 km/h
232 13-01-2021 15:00:00 4.05833 C 5.12 g/m*3 1.37 C 10.76667 km/h
233 13-01-2021 16:00:00 2.99167 C 5.01 g/m*3 0.57 C 8.75833 km/h
234 13-01-2021 17:00:00 2.39167 C 4.96 g/m*3 0.71 C 6.04167 km/h
235 13-01-2021 18:00:00 1.91667 C 4.95 g/m*3 1.92 C 2.53333 km/h
236 13-01-2021 19:00:00 1.8 C 5 g/m*3 1.8 C 4.26667 km/h
237 13-01-2021 20:00:00 2.03333 C 5.12 g/m*3 2.03 C 4.4 km/h
238 13-01-2021 21:00:00 2.49167 C 5.21 g/m*3 0.5 C 6.98333 km/h
239 13-01-2021 22:00:00 3.39167 C 5.18 g/m*3 1.5 C 7.11667 km/h
240 13-01-2021 23:00:00 3.725 C 5.2 g/m*3 1.69 C 7.8 km/h
241 14-01-2021 00:00:00 4.10833 C 5.45 g/m*3 1.67 C 9.68333 km/h
242 14-01-2021 01:00:00 4.05 C 5.8 g/m*3 1.79 C 8.86667 km/h
243 14-01-2021 02:00:00 3.76667 C 5.77 g/m*3 1.71 C 7.925 km/h
244 14-01-2021 03:00:00 3.56667 C 5.52 g/m*3 2.01 C 6.175 km/h
245 14-01-2021 04:00:00 3.275 C 5.19 g/m*3 1.59 C 6.44167 km/h
246 14-01-2021 05:00:00 2.61667 C 4.71 g/m*3 2.62 C 3.74167 km/h
247 14-01-2021 06:00:00 2.05 C 4.72 g/m*3 2.05 C 0.66667 km/h
248 14-01-2021 07:00:00 1.51667 C 4.63 g/m*3 1.52 C 0.66667 km/h
249 14-01-2021 08:00:00 1.36667 C 4.61 g/m*3 1.37 C 0.93333 km/h
250 14-01-2021 09:00:00 1.375 C 4.72 g/m*3 1.38 C 0.13333 km/h
Sensor: Nr:Datum:Temp:Abs-Feuchte:Windchill:Wind:
Aussen-T/F 251 14-01-2021 10:00:00 1.90833 C 4.8 g/m*3 1.91 C 0.53333 km/h
252 14-01-2021 11:00:00 2.425 C 4.72 g/m*3 1.02 C 5.34167 km/h
253 14-01-2021 12:00:00 2.625 C 4.65 g/m*3 0.94 C 6.15 km/h
254 14-01-2021 13:00:00 2.95 C 4.69 g/m*3 1.26 C 6.3 km/h
255 14-01-2021 14:00:00 3.11667 C 4.67 g/m*3 3.12 C 3.33333 km/h
256 14-01-2021 15:00:00 3.09167 C 4.7 g/m*3 3.09 C 2.13333 km/h
257 14-01-2021 16:00:00 2.63333 C 4.77 g/m*3 2.63 C 0.13333 km/h
258 14-01-2021 17:00:00 1.36667 C 4.6 g/m*3 1.37 C 1.06667 km/h
259 14-01-2021 18:00:00 0.89167 C 4.53 g/m*3 0.89 C 1.73333 km/h
260 14-01-2021 19:00:00 0.275 C 4.42 g/m*3 0.28 C 1.06667 km/h
261 14-01-2021 20:00:00 0.15833 C 4.46 g/m*3 0.16 C 1.875 km/h
262 14-01-2021 21:00:00 0.08333 C 4.39 g/m*3 0.08 C 1.06667 km/h
263 14-01-2021 22:00:00 -0.375 C 4.25 g/m*3 -0.38 C 1.06667 km/h
264 14-01-2021 23:00:00 -0.70833 C 4.15 g/m*3 -0.71 C 2 km/h
265 15-01-2021 00:00:00 -1.05833 C 4.06 g/m*3 -1.06 C 0.8 km/h
266 15-01-2021 01:00:00 -1.55 C 3.96 g/m*3 -1.55 C 0.8 km/h
267 15-01-2021 02:00:00 -2.04167 C 3.82 g/m*3 -2.04 C 0.66667 km/h
268 15-01-2021 03:00:00 -2.425 C 3.77 g/m*3 -2.42 C 0.13333 km/h
269 15-01-2021 04:00:00 -2.26667 C 3.85 g/m*3 -2.27 C 0.4 km/h
270 15-01-2021 05:00:00 -1.65833 C 4 g/m*3 -1.66 C 0 km/h
271 15-01-2021 06:00:00 -1.16667 C 4.1 g/m*3 -1.17 C 0 km/h
272 15-01-2021 07:00:00 -0.81667 C 4.17 g/m*3 -0.82 C 0 km/h
273 15-01-2021 08:00:00 -0.66667 C 4.2 g/m*3 -0.67 C 0 km/h
274 15-01-2021 09:00:00 -0.28333 C 4.29 g/m*3 -0.28 C 0 km/h
275 15-01-2021 10:00:00 -0.18333 C 4.28 g/m*3 -0.18 C 0.4 km/h
Sensor: Nr:Datum:Temp:Abs-Feuchte:Windchill:Wind:
Aussen-T/F 276 15-01-2021 11:00:00 0.10833 C 4.17 g/m*3 0.11 C 4.14167 km/h
277 15-01-2021 12:00:00 2.05 C 4.29 g/m*3 -0.75 C 9.55 km/h
278 15-01-2021 13:00:00 2.35 C 4.43 g/m*3 -0.26 C 9.00833 km/h
279 15-01-2021 14:00:00 2.45 C 4.52 g/m*3 0.24 C 7.65 km/h
280 15-01-2021 15:00:00 2.55833 C 4.63 g/m*3 0.62 C 6.84167 km/h
281 15-01-2021 16:00:00 2.325 C 4.66 g/m*3 0.35 C 6.84167 km/h
282 15-01-2021 17:00:00 2 C 4.58 g/m*3 2 C 2.13333 km/h
283 15-01-2021 18:00:00 1.71667 C 4.58 g/m*3 1.72 C 3.34167 km/h
284 15-01-2021 19:00:00 1.51667 C 4.66 g/m*3 1.52 C 3.73333 km/h
285 15-01-2021 20:00:00 1.39167 C 4.62 g/m*3 1.39 C 4 km/h
286 15-01-2021 21:00:00 1.24167 C 4.6 g/m*3 1.24 C 3.75 km/h
287 15-01-2021 22:00:00 1.11667 C 4.55 g/m*3 1.12 C 3.74167 km/h
288 15-01-2021 23:00:00 1.075 C 4.59 g/m*3 1.08 C 4 km/h
289 16-01-2021 00:00:00 0.85833 C 4.49 g/m*3 0.86 C 2.40833 km/h
290 16-01-2021 01:00:00 0.9 C 4.14 g/m*3 -1.21 C 6.59167 km/h
291 16-01-2021 02:00:00 0.79167 C 4.05 g/m*3 0.79 C 4.4 km/h
292 16-01-2021 03:00:00 0.625 C 4.07 g/m*3 0.63 C 2.4 km/h
293 16-01-2021 04:00:00 0.28333 C 4.1 g/m*3 0.28 C 0.13333 km/h
294 16-01-2021 05:00:00 0.09167 C 4.16 g/m*3 0.09 C 0.93333 km/h
295 16-01-2021 06:00:00 0.14167 C 4.15 g/m*3 0.14 C 0.8 km/h
296 16-01-2021 07:00:00 -0.05 C 4.16 g/m*3 -0.05 C 0.13333 km/h
297 16-01-2021 08:00:00 -0.15 C 4.19 g/m*3 -0.15 C 0 km/h
298 16-01-2021 09:00:00 0.04167 C 4.24 g/m*3 0.04 C 0.4 km/h
299 16-01-2021 10:00:00 0.83333 C 4.19 g/m*3 0.83 C 2.53333 km/h
300 16-01-2021 11:00:00 1.28333 C 4.21 g/m*3 1.28 C 4.675 km/h
Sensor: Nr:Datum:Temp:Abs-Feuchte:Windchill:Wind:
Aussen-T/F 301 16-01-2021 12:00:00 1.55 C 4.13 g/m*3 -0.45 C 6.55833 km/h
302 16-01-2021 13:00:00 1.6 C 4.05 g/m*3 0.19 C 5.09167 km/h
303 16-01-2021 14:00:00 1.4 C 3.87 g/m*3 1.4 C 3.33333 km/h
304 16-01-2021 15:00:00 1.25833 C 3.79 g/m*3 1.26 C 4.01667 km/h
305 16-01-2021 16:00:00 0.84167 C 3.8 g/m*3 0.84 C 1.06667 km/h
306 16-01-2021 17:00:00 -0.04167 C 3.92 g/m*3 -0.04 C 0 km/h
307 16-01-2021 18:00:00 -0.38333 C 3.93 g/m*3 -0.38 C 0 km/h
308 16-01-2021 19:00:00 -0.18333 C 4.02 g/m*3 -0.18 C 0.4 km/h
309 16-01-2021 20:00:00 -0.00833 C 4.25 g/m*3 -0.01 C 0.93333 km/h
310 16-01-2021 21:00:00 -0.28333 C 4.37 g/m*3 -0.28 C 0.4 km/h
311 16-01-2021 22:00:00 -0.44167 C 4.39 g/m*3 -0.44 C 0.53333 km/h
312 16-01-2021 23:00:00 -0.68333 C 4.34 g/m*3 -0.68 C 0.26667 km/h
313 17-01-2021 00:00:00 -0.78333 C 4.31 g/m*3 -0.78 C 0 km/h
314 17-01-2021 01:00:00 -0.975 C 4.26 g/m*3 -0.98 C 0 km/h
315 17-01-2021 02:00:00 -1.16667 C 4.2 g/m*3 -1.17 C 0 km/h
316 17-01-2021 03:00:00 -1.2 C 4.19 g/m*3 -1.2 C 0 km/h
317 17-01-2021 04:00:00 -1.16667 C 4.24 g/m*3 -1.17 C 0 km/h
318 17-01-2021 05:00:00 -1.03333 C 4.28 g/m*3 -1.03 C 0 km/h
319 17-01-2021 06:00:00 -0.85833 C 4.34 g/m*3 -0.86 C 0.13333 km/h
320 17-01-2021 07:00:00 -0.75 C 4.37 g/m*3 -0.75 C 0 km/h
321 17-01-2021 08:00:00 -0.65833 C 4.4 g/m*3 -0.66 C 0 km/h
322 17-01-2021 09:00:00 -0.25 C 4.53 g/m*3 -0.25 C 0.53333 km/h
323 17-01-2021 10:00:00 0.23333 C 4.68 g/m*3 0.23 C 0.4 km/h
324 17-01-2021 11:00:00 0.68333 C 4.82 g/m*3 0.68 C 0 km/h
325 17-01-2021 12:00:00 1.075 C 4.94 g/m*3 1.08 C 0 km/h
Sensor: Nr:Datum:Temp:Abs-Feuchte:Windchill:Wind:
Aussen-T/F 326 17-01-2021 13:00:00 1.34167 C 5 g/m*3 1.34 C 2.26667 km/h
327 17-01-2021 14:00:00 1.39167 C 5.06 g/m*3 1.39 C 2.4 km/h
328 17-01-2021 15:00:00 1.6 C 5.14 g/m*3 1.6 C 0.13333 km/h
329 17-01-2021 16:00:00 1.50833 C 5.11 g/m*3 1.51 C 0.4 km/h
330 17-01-2021 17:00:00 1.58333 C 5.18 g/m*3 1.58 C 1.46667 km/h
331 17-01-2021 18:00:00 1.69167 C 5.22 g/m*3 1.69 C 2.4 km/h
332 17-01-2021 19:00:00 1.8 C 5.26 g/m*3 1.8 C 2.13333 km/h
333 17-01-2021 20:00:00 1.86667 C 5.29 g/m*3 1.87 C 2.66667 km/h
334 17-01-2021 21:00:00 1.95833 C 5.32 g/m*3 1.96 C 2.13333 km/h
335 17-01-2021 22:00:00 2.11667 C 5.41 g/m*3 2.12 C 1.06667 km/h
336 17-01-2021 23:00:00 2.275 C 5.49 g/m*3 2.28 C 2 km/h

Maximal/Minimal-Werte vom 23.02.2003 - 03.08.2020

Sensor Min Max Avg
Temp
(Aussen-T/F)
-16.4 °C
20-12-2009  01:30:01
40.4 °C
25-07-2019  16:20:00
11.23 °C

Die Daten stammen von einer Davis Vantage Pro 2 Wetter-Station und werden unter Linux mit der Software wview2wettercgi und aufbereitet. Alle Angaben erfolgen ohne Gewähr für ihre Vollständigkeit oder Richtigkeit.
Kontakt: Rainer Krienke krienke@uni-koblenz.de . Meine Webseiten an der Uni Koblenz oder privat.
Version: $Revision: 0.78 $